Time,TemperatureF,DewpointF,PressureIn,WindDirection,WindDirectionDegrees,WindSpeedMPH,WindSpeedGustMPH,Humidity,HourlyPrecipIn,Conditions,Clouds,dailyrainin,SoftwareType,DateUTC
2013-02-13 00:00:00,11.2,1.7,30.42,NW,321,2.0,3.0,65,0.00,,,0.00,Wunderground v.1.15,2013-02-13 07:00:00,
2013-02-13 00:05:00,9.7,0.3,30.42,NW,321,2.0,3.0,65,0.00,,,0.00,Wunderground v.1.15,2013-02-13 07:05:00,
2013-02-13 00:10:00,8.5,-0.9,30.42,NW,321,2.0,2.0,65,0.00,,,0.00,Wunderground v.1.15,2013-02-13 07:10:00,
2013-02-13 00:15:00,7.5,-0.9,30.42,NW,321,3.0,3.0,68,0.00,,,0.00,Wunderground v.1.15,2013-02-13 07:15:00,
2013-02-13 00:20:00,7.3,-0.4,30.42,NW,321,3.0,4.0,70,0.00,,,0.00,Wunderground v.1.15,2013-02-13 07:20:00,
2013-02-13 00:25:00,7.3,-0.1,30.42,NW,321,2.0,4.0,71,0.00,,,0.00,Wunderground v.1.15,2013-02-13 07:25:00,
2013-02-13 00:30:00,7.5,0.4,30.41,NW,321,2.0,2.0,72,0.00,,,0.00,Wunderground v.1.15,2013-02-13 07:30:00,
2013-02-13 00:35:00,7.8,0.9,30.41,NW,321,2.0,3.0,73,0.00,,,0.00,Wunderground v.1.15,2013-02-13 07:35:00,
2013-02-13 00:40:00,7.8,0.3,30.41,NW,321,2.0,3.0,71,0.00,,,0.00,Wunderground v.1.15,2013-02-13 07:40:00,
2013-02-13 00:45:00,6.1,-2.2,30.41,NW,311,4.0,5.0,68,0.00,,,0.00,Wunderground v.1.15,2013-02-13 07:45:00,
2013-02-13 00:50:00,4.9,-2.5,30.41,NW,309,4.0,5.0,71,0.00,,,0.00,Wunderground v.1.15,2013-02-13 07:50:00,
2013-02-13 00:55:00,4.6,-2.2,30.41,NW,309,3.0,5.0,73,0.00,,,0.00,Wunderground v.1.15,2013-02-13 07:55:00,
2013-02-13 01:00:00,4.9,-1.6,30.42,NW,308,4.0,5.0,74,0.00,,,0.00,Wunderground v.1.15,2013-02-13 08:00:00,
2013-02-13 01:05:00,5.3,-1.2,30.41,NW,308,3.0,5.0,74,0.00,,,0.00,Wunderground v.1.15,2013-02-13 08:05:00,
2013-02-13 01:10:00,5.4,-1.1,30.41,NW,307,3.0,3.0,74,0.00,,,0.00,Wunderground v.1.15,2013-02-13 08:10:00,
2013-02-13 01:15:00,5.8,-0.4,30.41,NW,308,2.0,4.0,75,0.00,,,0.00,Wunderground v.1.15,2013-02-13 08:15:00,
2013-02-13 01:20:00,5.9,-0.6,30.42,NW,308,5.0,5.0,74,0.00,,,0.00,Wunderground v.1.15,2013-02-13 08:20:00,
2013-02-13 01:25:00,6.5,0.0,30.42,NW,306,5.0,5.0,74,0.00,,,0.00,Wunderground v.1.15,2013-02-13 08:25:00,
2013-02-13 01:30:00,6.1,-1.0,30.42,NW,306,4.0,5.0,72,0.00,,,0.00,Wunderground v.1.15,2013-02-13 08:30:00,
2013-02-13 01:35:00,5.2,-2.5,30.42,WNW,295,5.0,6.0,70,0.00,,,0.00,Wunderground v.1.15,2013-02-13 08:35:00,
2013-02-13 01:40:00,4.7,-2.6,30.42,WNW,295,3.0,5.0,71,0.00,,,0.00,Wunderground v.1.15,2013-02-13 08:40:00,
2013-02-13 01:45:00,4.8,-2.3,30.42,WNW,295,2.0,5.0,72,0.00,,,0.00,Wunderground v.1.15,2013-02-13 08:45:00,
2013-02-13 01:50:00,4.9,-1.9,30.42,WNW,295,4.0,5.0,73,0.00,,,0.00,Wunderground v.1.15,2013-02-13 08:50:00,
2013-02-13 01:55:00,4.6,-2.4,30.42,WNW,295,5.0,6.0,72,0.00,,,0.00,Wunderground v.1.15,2013-02-13 08:55:00,
2013-02-13 02:00:00,4.2,-2.8,30.42,WNW,295,5.0,6.0,72,0.00,,,0.00,Wunderground v.1.15,2013-02-13 09:00:00,
2013-02-13 02:05:00,4.9,-1.6,30.42,WNW,295,5.0,6.0,74,0.00,,,0.00,Wunderground v.1.15,2013-02-13 09:05:00,
2013-02-13 02:10:00,5.4,-1.1,30.42,WNW,295,4.0,5.0,74,0.00,,,0.00,Wunderground v.1.15,2013-02-13 09:10:00,
2013-02-13 02:15:00,5.5,-1.3,30.43,WNW,295,6.0,7.0,73,0.00,,,0.00,Wunderground v.1.15,2013-02-13 09:15:00,
2013-02-13 02:20:00,5.5,-1.3,30.42,WNW,295,5.0,6.0,73,0.00,,,0.00,Wunderground v.1.15,2013-02-13 09:20:00,
2013-02-13 02:25:00,5.4,-1.4,30.42,WNW,295,3.0,6.0,73,0.00,,,0.00,Wunderground v.1.15,2013-02-13 09:25:00,
2013-02-13 02:30:00,5.1,-1.7,30.42,WNW,295,3.0,4.0,73,0.00,,,0.00,Wunderground v.1.15,2013-02-13 09:30:00,
2013-02-13 02:35:00,4.1,-3.2,30.43,WNW,295,4.0,6.0,71,0.00,,,0.00,Wunderground v.1.15,2013-02-13 09:35:00,
2013-02-13 02:40:00,2.8,-4.8,30.42,WNW,295,5.0,5.0,70,0.00,,,0.00,Wunderground v.1.15,2013-02-13 09:40:00,
2013-02-13 02:45:00,2.4,-4.6,30.43,WNW,294,4.0,7.0,72,0.00,,,0.00,Wunderground v.1.15,2013-02-13 09:45:00,
2013-02-13 02:50:00,2.2,-4.5,30.42,West,277,6.0,6.0,73,0.00,,,0.00,Wunderground v.1.15,2013-02-13 09:50:00,
2013-02-13 02:55:00,2.4,-4.3,30.42,West,274,4.0,7.0,73,0.00,,,0.00,Wunderground v.1.15,2013-02-13 09:55:00,
2013-02-13 03:00:00,1.7,-5.0,30.42,West,273,4.0,5.0,73,0.00,,,0.00,Wunderground v.1.15,2013-02-13 10:00:00,
2013-02-13 03:05:00,1.7,-4.7,30.42,West,273,0.0,5.0,74,0.00,,,0.00,Wunderground v.1.15,2013-02-13 10:05:00,
2013-02-13 03:10:00,1.7,-4.7,30.42,West,274,4.0,4.0,74,0.00,,,0.00,Wunderground v.1.15,2013-02-13 10:10:00,
2013-02-13 03:15:00,1.7,-4.7,30.42,WSW,253,4.0,6.0,74,0.00,,,0.00,Wunderground v.1.15,2013-02-13 10:15:00,
2013-02-13 03:20:00,2.6,-3.2,30.42,WSW,253,4.0,5.0,76,0.00,,,0.00,Wunderground v.1.15,2013-02-13 10:20:00,
2013-02-13 03:25:00,3.6,-2.3,30.43,WSW,254,6.0,6.0,76,0.00,,,0.00,Wunderground v.1.15,2013-02-13 10:25:00,
2013-02-13 03:30:00,4.2,-2.0,30.43,WSW,253,4.0,5.0,75,0.00,,,0.00,Wunderground v.1.15,2013-02-13 10:30:00,
2013-02-13 03:35:00,4.2,-2.5,30.43,WNW,291,5.0,5.0,73,0.00,,,0.00,Wunderground v.1.15,2013-02-13 10:35:00,
2013-02-13 03:40:00,4.5,-2.0,30.42,WNW,283,3.0,4.0,74,0.00,,,0.00,Wunderground v.1.15,2013-02-13 10:40:00,
2013-02-13 03:45:00,4.1,-2.6,30.42,South,179,0.0,4.0,73,0.00,,,0.00,Wunderground v.1.15,2013-02-13 10:45:00,
2013-02-13 03:50:00,4.4,-2.3,30.42,South,180,2.0,2.0,73,0.00,,,0.00,Wunderground v.1.15,2013-02-13 10:50:00,
2013-02-13 03:55:00,4.5,-2.0,30.41,South,180,2.0,3.0,74,0.00,,,0.00,Wunderground v.1.15,2013-02-13 10:55:00,
2013-02-13 04:00:00,4.2,-2.5,30.42,South,179,2.0,2.0,73,0.00,,,0.00,Wunderground v.1.15,2013-02-13 11:00:00,
2013-02-13 04:05:00,4.7,-1.8,30.42,South,179,0.0,2.0,74,0.00,,,0.00,Wunderground v.1.15,2013-02-13 11:05:00,
2013-02-13 04:10:00,5.1,-1.4,30.42,South,180,3.0,3.0,74,0.00,,,0.00,Wunderground v.1.15,2013-02-13 11:10:00,
2013-02-13 04:15:00,5.3,-1.5,30.41,South,180,1.0,4.0,73,0.00,,,0.00,Wunderground v.1.15,2013-02-13 11:15:00,
2013-02-13 04:20:00,5.2,-1.6,30.42,South,180,0.0,2.0,73,0.00,,,0.00,Wunderground v.1.15,2013-02-13 11:20:00,
2013-02-13 04:25:00,5.8,-0.7,30.42,South,179,2.0,2.0,74,0.00,,,0.00,Wunderground v.1.15,2013-02-13 11:25:00,
2013-02-13 04:30:00,6.5,-0.3,30.41,West,264,6.0,6.0,73,0.00,,,0.00,Wunderground v.1.15,2013-02-13 11:30:00,
2013-02-13 04:35:00,6.8,-0.3,30.42,SSE,148,2.0,6.0,72,0.00,,,0.00,Wunderground v.1.15,2013-02-13 11:35:00,
2013-02-13 04:40:00,6.1,-1.6,30.41,ESE,109,0.0,3.0,70,0.00,,,0.00,Wunderground v.1.15,2013-02-13 11:40:00,
2013-02-13 04:45:00,6.1,-1.6,30.41,ESE,109,3.0,4.0,70,0.00,,,0.00,Wunderground v.1.15,2013-02-13 11:45:00,
2013-02-13 04:50:00,5.9,-1.8,30.40,SSW,194,3.0,4.0,70,0.00,,,0.00,Wunderground v.1.15,2013-02-13 11:50:00,
2013-02-13 04:55:00,5.5,-2.2,30.40,SSW,194,4.0,5.0,70,0.00,,,0.00,Wunderground v.1.15,2013-02-13 11:55:00,
2013-02-13 05:00:00,4.6,-3.3,30.41,SE,134,0.0,2.0,69,0.00,,,0.00,Wunderground v.1.15,2013-02-13 12:00:00,
2013-02-13 05:05:00,4.3,-3.0,30.41,SE,134,2.0,3.0,71,0.00,,,0.00,Wunderground v.1.15,2013-02-13 12:05:00,
2013-02-13 05:10:00,4.2,-2.8,30.41,SE,134,0.0,2.0,72,0.00,,,0.00,Wunderground v.1.15,2013-02-13 12:10:00,
2013-02-13 05:15:00,4.2,-2.8,30.42,SE,134,0.0,2.0,72,0.00,,,0.00,Wunderground v.1.15,2013-02-13 12:15:00,
2013-02-13 05:20:00,4.3,-2.7,30.42,SE,134,0.0,0.0,72,0.00,,,0.00,Wunderground v.1.15,2013-02-13 12:20:00,
2013-02-13 05:25:00,5.3,-1.2,30.41,SE,134,2.0,3.0,74,0.00,,,0.00,Wunderground v.1.15,2013-02-13 12:25:00,
2013-02-13 05:30:00,5.9,-0.9,30.42,SE,134,0.0,1.0,73,0.00,,,0.00,Wunderground v.1.15,2013-02-13 12:30:00,
2013-02-13 05:35:00,6.2,-0.9,30.41,SE,134,0.0,3.0,72,0.00,,,0.00,Wunderground v.1.15,2013-02-13 12:35:00,
2013-02-13 05:40:00,5.9,-1.8,30.42,SE,134,1.0,1.0,70,0.00,,,0.00,Wunderground v.1.15,2013-02-13 12:40:00,
2013-02-13 05:45:00,5.5,-1.9,30.42,SE,134,0.0,2.0,71,0.00,,,0.00,Wunderground v.1.15,2013-02-13 12:45:00,
2013-02-13 05:50:00,5.3,-2.1,30.42,SE,134,0.0,0.0,71,0.00,,,0.00,Wunderground v.1.15,2013-02-13 12:50:00,
2013-02-13 05:55:00,5.1,-2.0,30.42,SE,134,0.0,2.0,72,0.00,,,0.00,Wunderground v.1.15,2013-02-13 12:55:00,
2013-02-13 06:00:00,5.0,-2.1,30.42,SE,134,0.0,1.0,72,0.00,,,0.00,Wunderground v.1.15,2013-02-13 13:00:00,
2013-02-13 06:05:00,4.9,-2.2,30.42,SE,134,1.0,2.0,72,0.00,,,0.00,Wunderground v.1.15,2013-02-13 13:05:00,
2013-02-13 06:10:00,4.6,-2.7,30.42,SE,134,0.0,1.0,71,0.00,,,0.00,Wunderground v.1.15,2013-02-13 13:10:00,
2013-02-13 06:15:00,3.2,-4.4,30.42,SE,134,0.0,2.0,70,0.00,,,0.00,Wunderground v.1.15,2013-02-13 13:15:00,
2013-02-13 06:20:00,2.8,-4.5,30.42,West,270,1.0,3.0,71,0.00,,,0.00,Wunderground v.1.15,2013-02-13 13:20:00,
2013-02-13 06:25:00,2.5,-4.2,30.42,West,271,1.0,5.0,73,0.00,,,0.00,Wunderground v.1.15,2013-02-13 13:25:00,
2013-02-13 06:30:00,2.4,-4.0,30.42,West,272,0.0,1.0,74,0.00,,,0.00,Wunderground v.1.15,2013-02-13 13:30:00,
2013-02-13 06:35:00,2.5,-3.9,30.43,WNW,288,2.0,3.0,74,0.00,,,0.00,Wunderground v.1.15,2013-02-13 13:35:00,
2013-02-13 06:40:00,2.5,-3.9,30.42,WNW,289,0.0,0.0,74,0.00,,,0.00,Wunderground v.1.15,2013-02-13 13:40:00,
2013-02-13 06:45:00,2.6,-3.5,30.42,WNW,289,1.0,2.0,75,0.00,,,0.00,Wunderground v.1.15,2013-02-13 13:45:00,
2013-02-13 06:50:00,3.2,-2.9,30.42,WNW,288,3.0,3.0,75,0.00,,,0.00,Wunderground v.1.15,2013-02-13 13:50:00,
2013-02-13 06:55:00,3.5,-2.7,30.43,NNW,346,3.0,6.0,75,0.00,,,0.00,Wunderground v.1.15,2013-02-13 13:55:00,
2013-02-13 07:00:00,3.3,-3.1,30.43,NNW,346,4.0,4.0,74,0.00,,,0.00,Wunderground v.1.15,2013-02-13 14:00:00,
2013-02-13 07:05:00,2.8,-3.9,30.43,NNW,346,2.0,4.0,73,0.00,,,0.00,Wunderground v.1.15,2013-02-13 14:05:00,
2013-02-13 07:10:00,2.6,-4.1,30.43,NNW,346,1.0,3.0,73,0.00,,,0.00,Wunderground v.1.15,2013-02-13 14:10:00,
2013-02-13 07:15:00,3.3,-2.8,30.43,NNW,346,3.0,5.0,75,0.00,,,0.00,Wunderground v.1.15,2013-02-13 14:15:00,
2013-02-13 07:20:00,4.1,-2.1,30.43,NNW,346,1.0,2.0,75,0.00,,,0.00,Wunderground v.1.15,2013-02-13 14:20:00,
2013-02-13 07:25:00,4.6,-1.6,30.43,NNW,346,2.0,2.0,75,0.00,,,0.00,Wunderground v.1.15,2013-02-13 14:25:00,
2013-02-13 07:30:00,5.0,-1.5,30.43,NNW,344,2.0,4.0,74,0.00,,,0.00,Wunderground v.1.15,2013-02-13 14:30:00,
2013-02-13 07:35:00,5.3,-1.2,30.43,NNW,344,4.0,4.0,74,0.00,,,0.00,Wunderground v.1.15,2013-02-13 14:35:00,
2013-02-13 07:40:00,6.0,-0.5,30.43,NNW,344,3.0,4.0,74,0.00,,,0.00,Wunderground v.1.15,2013-02-13 14:40:00,
2013-02-13 07:45:00,6.5,0.0,30.43,NNW,344,2.0,4.0,74,0.00,,,0.00,Wunderground v.1.15,2013-02-13 14:45:00,
2013-02-13 07:50:00,6.7,0.2,30.44,NNW,344,1.0,3.0,74,0.00,,,0.00,Wunderground v.1.15,2013-02-13 14:50:00,
2013-02-13 07:55:00,6.8,0.0,30.44,NNW,344,0.0,3.0,73,0.00,,,0.00,Wunderground v.1.15,2013-02-13 14:55:00,
2013-02-13 08:00:00,6.7,-0.1,30.43,NNW,344,0.0,1.0,73,0.00,,,0.00,Wunderground v.1.15,2013-02-13 15:00:00,
2013-02-13 08:05:00,7.1,0.6,30.44,NNW,344,3.0,4.0,74,0.00,,,0.00,Wunderground v.1.15,2013-02-13 15:05:00,
2013-02-13 08:10:00,8.2,2.2,30.44,NNW,338,2.0,4.0,76,0.00,,,0.00,Wunderground v.1.15,2013-02-13 15:10:00,
2013-02-13 08:15:00,9.4,3.4,30.45,NNW,333,3.0,5.0,76,0.00,,,0.00,Wunderground v.1.15,2013-02-13 15:15:00,
2013-02-13 08:20:00,10.3,4.2,30.44,NW,318,5.0,5.0,76,0.00,,,0.00,Wunderground v.1.15,2013-02-13 15:20:00,
2013-02-13 08:25:00,10.9,4.2,30.44,NW,309,4.0,7.0,74,0.00,,,0.00,Wunderground v.1.15,2013-02-13 15:25:00,
2013-02-13 08:30:00,11.2,3.9,30.44,NW,309,4.0,4.0,72,0.00,,,0.00,Wunderground v.1.15,2013-02-13 15:30:00,
2013-02-13 08:35:00,11.0,3.1,30.44,NW,309,4.0,5.0,70,0.00,,,0.00,Wunderground v.1.15,2013-02-13 15:35:00,
2013-02-13 08:40:00,10.1,1.9,30.44,NW,309,4.0,4.0,69,0.00,,,0.00,Wunderground v.1.15,2013-02-13 15:40:00,
2013-02-13 08:45:00,10.0,2.2,30.44,NW,309,4.0,4.0,70,0.00,,,0.00,Wunderground v.1.15,2013-02-13 15:45:00,
2013-02-13 08:50:00,10.2,2.4,30.44,NW,309,2.0,3.0,70,0.00,,,0.00,Wunderground v.1.15,2013-02-13 15:50:00,
2013-02-13 08:55:00,10.7,3.4,30.43,WNW,297,2.0,4.0,72,0.00,,,0.00,Wunderground v.1.15,2013-02-13 15:55:00,
2013-02-13 09:00:00,11.5,4.2,30.43,WNW,296,1.0,3.0,72,0.00,,,0.00,Wunderground v.1.15,2013-02-13 16:00:00,
2013-02-13 09:05:00,12.3,5.3,30.43,WNW,297,0.0,3.0,73,0.00,,,0.00,Wunderground v.1.15,2013-02-13 16:05:00,
2013-02-13 09:10:00,13.0,6.0,30.43,WNW,297,1.0,2.0,73,0.00,,,0.00,Wunderground v.1.15,2013-02-13 16:10:00,
2013-02-13 09:15:00,13.9,6.8,30.43,WNW,283,2.0,4.0,73,0.00,,,0.00,Wunderground v.1.15,2013-02-13 16:15:00,
2013-02-13 09:20:00,15.3,7.6,30.43,SW,218,0.0,2.0,71,0.00,,,0.00,Wunderground v.1.15,2013-02-13 16:20:00,
2013-02-13 09:25:00,16.3,7.9,30.43,SW,219,1.0,2.0,69,0.00,,,0.00,Wunderground v.1.15,2013-02-13 16:25:00,
2013-02-13 09:30:00,17.2,7.8,30.44,SW,219,0.0,2.0,66,0.00,,,0.00,Wunderground v.1.15,2013-02-13 16:30:00,
2013-02-13 09:35:00,17.9,8.1,30.44,SW,218,2.0,3.0,65,0.00,,,0.00,Wunderground v.1.15,2013-02-13 16:35:00,
2013-02-13 09:40:00,18.7,8.5,30.44,South,173,0.0,1.0,64,0.00,,,0.00,Wunderground v.1.15,2013-02-13 16:40:00,
2013-02-13 09:45:00,19.4,8.5,30.43,South,173,1.0,3.0,62,0.00,,,0.00,Wunderground v.1.15,2013-02-13 16:45:00,
2013-02-13 09:50:00,19.9,8.6,30.44,South,173,3.0,4.0,61,0.00,,,0.00,Wunderground v.1.15,2013-02-13 16:50:00,
2013-02-13 09:55:00,20.3,8.6,30.45,South,173,0.0,4.0,60,0.00,,,0.00,Wunderground v.1.15,2013-02-13 16:55:00,
2013-02-13 10:00:00,20.7,8.6,30.44,South,173,3.0,4.0,59,0.00,,,0.00,Wunderground v.1.15,2013-02-13 17:00:00,
2013-02-13 10:05:00,20.9,8.4,30.44,SSE,167,1.0,4.0,58,0.00,,,0.00,Wunderground v.1.15,2013-02-13 17:05:00,
2013-02-13 10:10:00,21.3,9.6,30.44,SSE,167,1.0,1.0,60,0.00,,,0.00,Wunderground v.1.15,2013-02-13 17:10:00,
2013-02-13 10:15:00,21.7,9.2,30.43,SSE,154,2.0,6.0,58,0.00,,,0.00,Wunderground v.1.15,2013-02-13 17:15:00,
2013-02-13 10:20:00,22.1,9.6,30.43,SE,144,4.0,5.0,58,0.00,,,0.00,Wunderground v.1.15,2013-02-13 17:20:00,
2013-02-13 10:25:00,22.5,9.9,30.43,SE,141,3.0,6.0,58,0.00,,,0.00,Wunderground v.1.15,2013-02-13 17:25:00,
2013-02-13 10:30:00,22.8,9.8,30.43,SE,138,3.0,6.0,57,0.00,,,0.00,Wunderground v.1.15,2013-02-13 17:30:00,
2013-02-13 10:35:00,23.1,10.1,30.43,SSE,148,3.0,7.0,57,0.00,,,0.00,Wunderground v.1.15,2013-02-13 17:35:00,
2013-02-13 10:40:00,23.4,9.6,30.43,SE,140,5.0,5.0,55,0.00,,,0.00,Wunderground v.1.15,2013-02-13 17:40:00,
2013-02-13 10:45:00,23.7,10.3,30.42,SE,136,5.0,8.0,56,0.00,,,0.00,Wunderground v.1.15,2013-02-13 17:45:00,
2013-02-13 10:50:00,24.2,11.1,30.42,SE,137,6.0,8.0,57,0.00,,,0.00,Wunderground v.1.15,2013-02-13 17:50:00,
2013-02-13 10:55:00,24.3,10.4,30.42,SSE,155,4.0,9.0,55,0.00,,,0.00,Wunderground v.1.15,2013-02-13 17:55:00,
2013-02-13 11:00:00,24.3,10.8,30.42,SE,138,7.0,7.0,56,0.00,,,0.00,Wunderground v.1.15,2013-02-13 18:00:00,
2013-02-13 11:05:00,24.5,11.4,30.41,SE,136,6.0,9.0,57,0.00,,,0.00,Wunderground v.1.15,2013-02-13 18:05:00,
2013-02-13 11:10:00,25.0,11.5,30.41,SSE,156,4.0,6.0,56,0.00,,,0.00,Wunderground v.1.15,2013-02-13 18:10:00,
2013-02-13 11:15:00,25.3,11.4,30.41,SSE,159,8.0,9.0,55,0.00,,,0.00,Wunderground v.1.15,2013-02-13 18:15:00,
2013-02-13 11:20:00,25.6,11.2,30.42,SE,145,4.0,5.0,54,0.00,,,0.00,Wunderground v.1.15,2013-02-13 18:20:00,
2013-02-13 11:25:00,25.9,11.5,30.41,SE,137,3.0,6.0,54,0.00,,,0.00,Wunderground v.1.15,2013-02-13 18:25:00,
2013-02-13 11:30:00,26.3,11.5,30.40,SE,136,4.0,6.0,53,0.00,,,0.00,Wunderground v.1.15,2013-02-13 18:30:00,
2013-02-13 11:35:00,26.3,11.5,30.40,SSE,155,6.0,8.0,53,0.00,,,0.00,Wunderground v.1.15,2013-02-13 18:35:00,
2013-02-13 11:40:00,26.3,11.0,30.40,SE,140,4.0,5.0,52,0.00,,,0.00,Wunderground v.1.15,2013-02-13 18:40:00,
2013-02-13 11:45:00,26.6,12.2,30.39,SSE,153,7.0,9.0,54,0.00,,,0.00,Wunderground v.1.15,2013-02-13 18:45:00,
2013-02-13 11:50:00,26.3,11.9,30.39,SSE,153,6.0,7.0,54,0.00,,,0.00,Wunderground v.1.15,2013-02-13 18:50:00,
2013-02-13 11:55:00,26.8,12.4,30.38,SE,145,8.0,11.0,54,0.00,,,0.00,Wunderground v.1.15,2013-02-13 18:55:00,
2013-02-13 12:00:00,26.9,12.5,30.38,South,184,8.0,11.0,54,0.00,,,0.00,Wunderground v.1.15,2013-02-13 19:00:00,
2013-02-13 12:05:00,26.5,12.1,30.38,South,177,9.0,12.0,54,0.00,,,0.00,Wunderground v.1.15,2013-02-13 19:05:00,
2013-02-13 12:10:00,26.2,12.2,30.38,SSE,158,9.0,12.0,55,0.00,,,0.00,Wunderground v.1.15,2013-02-13 19:10:00,
2013-02-13 12:15:00,26.2,13.0,30.37,South,169,9.0,13.0,57,0.00,,,0.00,Wunderground v.1.15,2013-02-13 19:15:00,
2013-02-13 12:20:00,26.6,12.6,30.37,SSE,168,6.0,9.0,55,0.00,,,0.00,Wunderground v.1.15,2013-02-13 19:20:00,
2013-02-13 12:25:00,28.0,13.5,30.36,SSE,154,8.0,10.0,54,0.00,,,0.00,Wunderground v.1.15,2013-02-13 19:25:00,
2013-02-13 12:30:00,28.8,13.4,30.36,SSE,153,6.0,9.0,52,0.00,,,0.00,Wunderground v.1.15,2013-02-13 19:30:00,
2013-02-13 12:35:00,29.3,12.9,30.36,SE,146,5.0,10.0,50,0.00,,,0.00,Wunderground v.1.15,2013-02-13 19:35:00,
2013-02-13 12:40:00,29.6,12.8,30.36,SE,141,5.0,6.0,49,0.00,,,0.00,Wunderground v.1.15,2013-02-13 19:40:00,
2013-02-13 12:45:00,29.9,13.5,30.35,SE,134,2.0,8.0,50,0.00,,,0.00,Wunderground v.1.15,2013-02-13 19:45:00,
2013-02-13 12:50:00,30.9,14.4,30.35,SE,134,7.0,7.0,50,0.00,,,0.00,Wunderground v.1.15,2013-02-13 19:50:00,
2013-02-13 12:55:00,32.2,14.7,30.35,SE,135,2.0,7.0,48,0.00,,,0.00,Wunderground v.1.15,2013-02-13 19:55:00,
2013-02-13 13:00:00,32.9,14.4,30.34,SE,140,1.0,6.0,46,0.00,,,0.00,Wunderground v.1.15,2013-02-13 20:00:00,
2013-02-13 13:05:00,33.0,14.4,30.33,SE,142,2.0,8.0,46,0.00,,,0.00,Wunderground v.1.15,2013-02-13 20:05:00,
2013-02-13 13:10:00,32.7,13.7,30.33,SE,138,4.0,8.0,45,0.00,,,0.00,Wunderground v.1.15,2013-02-13 20:10:00,
2013-02-13 13:15:00,32.1,14.1,30.33,SE,137,4.0,8.0,47,0.00,,,0.00,Wunderground v.1.15,2013-02-13 20:15:00,
2013-02-13 13:20:00,32.4,13.9,30.33,SE,146,3.0,4.0,46,0.00,,,0.00,Wunderground v.1.15,2013-02-13 20:20:00,
2013-02-13 13:25:00,32.5,13.5,30.33,SE,133,2.0,8.0,45,0.00,,,0.00,Wunderground v.1.15,2013-02-13 20:25:00,
2013-02-13 13:30:00,32.1,13.1,30.32,SE,138,8.0,8.0,45,0.00,,,0.00,Wunderground v.1.15,2013-02-13 20:30:00,
2013-02-13 13:35:00,32.8,14.3,30.32,SE,136,7.0,10.0,46,0.00,,,0.00,Wunderground v.1.15,2013-02-13 20:35:00,
2013-02-13 13:40:00,34.0,14.3,30.32,SE,134,6.0,8.0,44,0.00,,,0.00,Wunderground v.1.15,2013-02-13 20:40:00,
2013-02-13 13:45:00,34.5,14.8,30.31,SSE,147,10.0,10.0,44,0.00,,,0.00,Wunderground v.1.15,2013-02-13 20:45:00,
2013-02-13 13:50:00,34.6,14.4,30.31,SE,140,5.0,6.0,43,0.00,,,0.00,Wunderground v.1.15,2013-02-13 20:50:00,
2013-02-13 13:55:00,34.6,14.4,30.31,SE,140,7.0,9.0,43,0.00,,,0.00,Wunderground v.1.15,2013-02-13 20:55:00,
2013-02-13 14:00:00,34.4,13.6,30.31,SE,140,3.0,6.0,42,0.00,,,0.00,Wunderground v.1.15,2013-02-13 21:00:00,
2013-02-13 14:05:00,33.8,13.6,30.31,SE,143,6.0,7.0,43,0.00,,,0.00,Wunderground v.1.15,2013-02-13 21:05:00,
2013-02-13 14:10:00,33.8,13.6,30.31,SE,142,0.0,4.0,43,0.00,,,0.00,Wunderground v.1.15,2013-02-13 21:10:00,
2013-02-13 14:15:00,33.8,13.6,30.31,SE,141,4.0,4.0,43,0.00,,,0.00,Wunderground v.1.15,2013-02-13 21:15:00,
2013-02-13 14:20:00,34.2,14.0,30.30,SE,138,3.0,4.0,43,0.00,,,0.00,Wunderground v.1.15,2013-02-13 21:20:00,
2013-02-13 14:25:00,34.6,14.4,30.30,SE,138,0.0,5.0,43,0.00,,,0.00,Wunderground v.1.15,2013-02-13 21:25:00,
2013-02-13 14:30:00,35.5,15.2,30.31,SE,138,0.0,2.0,43,0.00,,,0.00,Wunderground v.1.15,2013-02-13 21:30:00,
2013-02-13 14:35:00,36.0,16.2,30.31,SE,137,0.0,4.0,44,0.00,,,0.00,Wunderground v.1.15,2013-02-13 21:35:00,
2013-02-13 14:40:00,36.2,15.8,30.30,SE,136,0.0,1.0,43,0.00,,,0.00,Wunderground v.1.15,2013-02-13 21:40:00,
2013-02-13 14:45:00,36.2,15.3,30.31,SE,139,4.0,5.0,42,0.00,,,0.00,Wunderground v.1.15,2013-02-13 21:45:00,
2013-02-13 14:50:00,36.5,14.4,30.31,SE,129,2.0,5.0,40,0.00,,,0.00,Wunderground v.1.15,2013-02-13 21:50:00,
2013-02-13 14:55:00,36.3,14.3,30.31,SE,132,3.0,5.0,40,0.00,,,0.00,Wunderground v.1.15,2013-02-13 21:55:00,
2013-02-13 15:00:00,36.5,14.4,30.31,SE,135,1.0,4.0,40,0.00,,,0.00,Wunderground v.1.15,2013-02-13 22:00:00,
2013-02-13 15:05:00,36.7,14.0,30.31,SE,140,2.0,6.0,39,0.00,,,0.00,Wunderground v.1.15,2013-02-13 22:05:00,
2013-02-13 15:10:00,37.1,15.0,30.31,SE,141,0.0,3.0,40,0.00,,,0.00,Wunderground v.1.15,2013-02-13 22:10:00,
2013-02-13 15:15:00,37.7,14.9,30.31,SE,141,3.0,3.0,39,0.00,,,0.00,Wunderground v.1.15,2013-02-13 22:15:00,
2013-02-13 15:20:00,36.5,13.9,30.32,SE,143,2.0,2.0,39,0.00,,,0.00,Wunderground v.1.15,2013-02-13 22:20:00,
2013-02-13 15:25:00,35.2,14.4,30.32,South,184,5.0,5.0,42,0.00,,,0.00,Wunderground v.1.15,2013-02-13 22:25:00,
2013-02-13 15:30:00,34.1,14.4,30.31,South,183,6.0,6.0,44,0.00,,,0.00,Wunderground v.1.15,2013-02-13 22:30:00,
2013-02-13 15:35:00,33.0,15.4,30.31,SSW,205,5.0,7.0,48,0.00,,,0.00,Wunderground v.1.15,2013-02-13 22:35:00,
2013-02-13 15:40:00,32.1,15.1,30.31,SSW,213,7.0,8.0,49,0.00,,,0.00,Wunderground v.1.15,2013-02-13 22:40:00,
2013-02-13 15:45:00,31.7,15.6,30.32,SW,215,7.0,9.0,51,0.00,,,0.00,Wunderground v.1.15,2013-02-13 22:45:00,
2013-02-13 15:50:00,31.3,16.1,30.31,SSW,213,6.0,7.0,53,0.00,,,0.00,Wunderground v.1.15,2013-02-13 22:50:00,
2013-02-13 15:55:00,31.1,16.4,30.31,SSW,213,7.0,9.0,54,0.00,,,0.00,Wunderground v.1.15,2013-02-13 22:55:00,
2013-02-13 16:00:00,30.8,16.1,30.31,SSW,199,8.0,8.0,54,0.00,,,0.00,Wunderground v.1.15,2013-02-13 23:00:00,
2013-02-13 16:05:00,30.7,16.8,30.31,SSW,203,8.0,9.0,56,0.00,,,0.00,Wunderground v.1.15,2013-02-13 23:05:00,
2013-02-13 16:10:00,30.3,16.0,30.31,South,183,11.0,11.0,55,0.00,,,0.00,Wunderground v.1.15,2013-02-13 23:10:00,
2013-02-13 16:15:00,30.2,15.5,30.31,South,181,10.0,12.0,54,0.00,,,0.00,Wunderground v.1.15,2013-02-13 23:15:00,
2013-02-13 16:20:00,30.1,16.3,30.31,South,182,9.0,10.0,56,0.00,,,0.00,Wunderground v.1.15,2013-02-13 23:20:00,
2013-02-13 16:25:00,29.9,16.1,30.31,SSW,193,8.0,11.0,56,0.00,,,0.00,Wunderground v.1.15,2013-02-13 23:25:00,
2013-02-13 16:30:00,29.4,16.4,30.31,SSW,193,7.0,8.0,58,0.00,,,0.00,Wunderground v.1.15,2013-02-13 23:30:00,
2013-02-13 16:35:00,29.4,16.4,30.31,SSW,198,8.0,8.0,58,0.00,,,0.00,Wunderground v.1.15,2013-02-13 23:35:00,
2013-02-13 16:40:00,29.3,16.3,30.31,SSW,194,7.0,7.0,58,0.00,,,0.00,Wunderground v.1.15,2013-02-13 23:40:00,
2013-02-13 16:45:00,29.5,16.5,30.31,SSW,195,5.0,7.0,58,0.00,,,0.00,Wunderground v.1.15,2013-02-13 23:45:00,
2013-02-13 16:50:00,30.0,17.0,30.31,SSW,195,5.0,6.0,58,0.00,,,0.00,Wunderground v.1.15,2013-02-13 23:50:00,
2013-02-13 16:55:00,30.4,16.6,30.31,SSW,195,2.0,6.0,56,0.00,,,0.00,Wunderground v.1.15,2013-02-13 23:55:00,
2013-02-13 17:00:00,30.8,16.1,30.32,SSW,195,0.0,3.0,54,0.00,,,0.00,Wunderground v.1.15,2013-02-14 00:00:00,
2013-02-13 17:05:00,31.5,17.6,30.32,South,178,0.0,3.0,56,0.00,,,0.00,Wunderground v.1.15,2013-02-14 00:05:00,
2013-02-13 17:10:00,31.5,16.7,30.32,SSE,165,0.0,0.0,54,0.00,,,0.00,Wunderground v.1.15,2013-02-14 00:10:00,
2013-02-13 17:15:00,31.0,16.3,30.32,SSE,165,0.0,0.0,54,0.00,,,0.00,Wunderground v.1.15,2013-02-14 00:15:00,
2013-02-13 17:20:00,30.5,15.8,30.32,SSE,165,0.0,0.0,54,0.00,,,0.00,Wunderground v.1.15,2013-02-14 00:20:00,
2013-02-13 17:25:00,30.4,15.7,30.32,SSE,165,0.0,0.0,54,0.00,,,0.00,Wunderground v.1.15,2013-02-14 00:25:00,
2013-02-13 17:30:00,30.1,15.4,30.32,SSE,165,0.0,0.0,54,0.00,,,0.00,Wunderground v.1.15,2013-02-14 00:30:00,
2013-02-13 17:35:00,29.7,15.1,30.32,SSE,165,0.0,0.0,54,0.00,,,0.00,Wunderground v.1.15,2013-02-14 00:35:00,
2013-02-13 17:40:00,29.2,14.6,30.32,SSE,165,0.0,0.0,54,0.00,,,0.00,Wunderground v.1.15,2013-02-14 00:40:00,
2013-02-13 17:45:00,28.5,13.9,30.33,SSE,165,0.0,0.0,54,0.00,,,0.00,Wunderground v.1.15,2013-02-14 00:45:00,
2013-02-13 17:50:00,28.0,13.5,30.33,SSE,165,0.0,0.0,54,0.00,,,0.00,Wunderground v.1.15,2013-02-14 00:50:00,
2013-02-13 17:55:00,27.6,13.1,30.33,SSE,165,0.0,0.0,54,0.00,,,0.00,Wunderground v.1.15,2013-02-14 00:55:00,
2013-02-13 18:00:00,27.3,13.2,30.33,SSE,165,1.0,2.0,55,0.00,,,0.00,Wunderground v.1.15,2013-02-14 01:00:00,
2013-02-13 18:05:00,26.4,13.2,30.33,WSW,256,1.0,4.0,57,0.00,,,0.00,Wunderground v.1.15,2013-02-14 01:05:00,
2013-02-13 18:10:00,25.8,13.0,30.34,WNW,297,6.0,7.0,58,0.00,,,0.00,Wunderground v.1.15,2013-02-14 01:10:00,
2013-02-13 18:15:00,25.7,12.6,30.34,WNW,295,4.0,7.0,57,0.00,,,0.00,Wunderground v.1.15,2013-02-14 01:15:00,
2013-02-13 18:20:00,24.7,12.4,30.35,WNW,291,5.0,6.0,59,0.00,,,0.00,Wunderground v.1.15,2013-02-14 01:20:00,
2013-02-13 18:25:00,24.1,12.6,30.34,WNW,291,3.0,6.0,61,0.00,,,0.00,Wunderground v.1.15,2013-02-14 01:25:00,
2013-02-13 18:30:00,24.2,11.9,30.34,West,280,4.0,5.0,59,0.00,,,0.00,Wunderground v.1.15,2013-02-14 01:30:00,
2013-02-13 18:35:00,23.4,11.5,30.34,West,273,4.0,5.0,60,0.00,,,0.00,Wunderground v.1.15,2013-02-14 01:35:00,
2013-02-13 18:40:00,22.4,10.6,30.34,West,274,1.0,3.0,60,0.00,,,0.00,Wunderground v.1.15,2013-02-14 01:40:00,
2013-02-13 18:45:00,21.6,10.2,30.35,West,273,1.0,3.0,61,0.00,,,0.00,Wunderground v.1.15,2013-02-14 01:45:00,
2013-02-13 18:50:00,20.8,10.9,30.35,SSE,168,1.0,2.0,65,0.00,,,0.00,Wunderground v.1.15,2013-02-14 01:50:00,
2013-02-13 18:55:00,21.3,12.0,30.35,SSE,168,3.0,3.0,67,0.00,,,0.00,Wunderground v.1.15,2013-02-14 01:55:00,
2013-02-13 19:00:00,23.2,12.8,30.35,South,178,4.0,7.0,64,0.00,,,0.00,Wunderground v.1.15,2013-02-14 02:00:00,
2013-02-13 19:05:00,24.0,12.9,30.35,SSW,200,3.0,7.0,62,0.00,,,0.00,Wunderground v.1.15,2013-02-14 02:05:00,
2013-02-13 19:10:00,24.6,13.1,30.35,SW,224,5.0,5.0,61,0.00,,,0.00,Wunderground v.1.15,2013-02-14 02:10:00,
2013-02-13 19:15:00,24.9,13.0,30.35,SW,223,3.0,5.0,60,0.00,,,0.00,Wunderground v.1.15,2013-02-14 02:15:00,
2013-02-13 19:20:00,25.1,12.4,30.35,West,265,4.0,4.0,58,0.00,,,0.00,Wunderground v.1.15,2013-02-14 02:20:00,
2013-02-13 19:25:00,24.8,12.1,30.35,West,265,3.0,4.0,58,0.00,,,0.00,Wunderground v.1.15,2013-02-14 02:25:00,
2013-02-13 19:30:00,24.6,11.9,30.35,WNW,300,6.0,7.0,58,0.00,,,0.00,Wunderground v.1.15,2013-02-14 02:30:00,
2013-02-13 19:35:00,23.6,11.0,30.34,NW,306,8.0,9.0,58,0.00,,,0.00,Wunderground v.1.15,2013-02-14 02:35:00,
2013-02-13 19:40:00,22.8,11.0,30.34,WNW,295,7.0,9.0,60,0.00,,,0.00,Wunderground v.1.15,2013-02-14 02:40:00,
2013-02-13 19:45:00,22.2,10.8,30.35,East,86,0.0,9.0,61,0.00,,,0.00,Wunderground v.1.15,2013-02-14 02:45:00,
2013-02-13 19:50:00,21.8,11.1,30.35,East,94,0.0,3.0,63,0.00,,,0.00,Wunderground v.1.15,2013-02-14 02:50:00,
2013-02-13 19:55:00,22.6,11.5,30.35,East,94,0.0,3.0,62,0.00,,,0.00,Wunderground v.1.15,2013-02-14 02:55:00,
2013-02-13 20:00:00,22.7,11.3,30.34,East,94,0.0,0.0,61,0.00,,,0.00,Wunderground v.1.15,2013-02-14 03:00:00,
2013-02-13 20:05:00,22.2,10.8,30.34,NNW,346,5.0,7.0,61,0.00,,,0.00,Wunderground v.1.15,2013-02-14 03:05:00,
2013-02-13 20:10:00,23.1,11.3,30.33,NW,322,5.0,6.0,60,0.00,,,0.00,Wunderground v.1.15,2013-02-14 03:10:00,
2013-02-13 20:15:00,23.5,10.9,30.34,NW,322,0.0,6.0,58,0.00,,,0.00,Wunderground v.1.15,2013-02-14 03:15:00,
2013-02-13 20:20:00,22.7,9.7,30.34,NW,322,1.0,2.0,57,0.00,,,0.00,Wunderground v.1.15,2013-02-14 03:20:00,
2013-02-13 20:25:00,20.6,7.8,30.34,WSW,257,6.0,6.0,57,0.00,,,0.00,Wunderground v.1.15,2013-02-14 03:25:00,
2013-02-13 20:30:00,18.4,7.2,30.34,WSW,252,5.0,5.0,61,0.00,,,0.00,Wunderground v.1.15,2013-02-14 03:30:00,
2013-02-13 20:35:00,18.3,8.1,30.34,SW,234,5.0,7.0,64,0.00,,,0.00,Wunderground v.1.15,2013-02-14 03:35:00,
2013-02-13 20:40:00,16.4,5.6,30.34,SW,235,7.0,8.0,62,0.00,,,0.00,Wunderground v.1.15,2013-02-14 03:40:00,
2013-02-13 20:45:00,15.8,7.1,30.33,SW,234,7.0,9.0,68,0.00,,,0.00,Wunderground v.1.15,2013-02-14 03:45:00,
2013-02-13 20:50:00,17.4,9.3,30.34,SW,235,2.0,7.0,70,0.00,,,0.00,Wunderground v.1.15,2013-02-14 03:50:00,
2013-02-13 20:55:00,18.5,9.7,30.34,SW,227,3.0,7.0,68,0.00,,,0.00,Wunderground v.1.15,2013-02-14 03:55:00,
2013-02-13 21:00:00,18.4,8.9,30.34,West,281,4.0,6.0,66,0.00,,,0.00,Wunderground v.1.15,2013-02-14 04:00:00,
2013-02-13 21:05:00,18.0,8.5,30.33,WNW,285,6.0,8.0,66,0.00,,,0.00,Wunderground v.1.15,2013-02-14 04:05:00,
2013-02-13 21:10:00,17.1,7.7,30.33,West,280,11.0,11.0,66,0.00,,,0.00,Wunderground v.1.15,2013-02-14 04:10:00,
2013-02-13 21:15:00,16.1,7.1,30.33,West,277,8.0,12.0,67,0.00,,,0.00,Wunderground v.1.15,2013-02-14 04:15:00,
2013-02-13 21:20:00,15.3,6.9,30.33,West,269,7.0,9.0,69,0.00,,,0.00,Wunderground v.1.15,2013-02-14 04:20:00,
2013-02-13 21:25:00,15.1,6.8,30.33,West,268,8.0,9.0,69,0.00,,,0.00,Wunderground v.1.15,2013-02-14 04:25:00,
2013-02-13 21:30:00,15.1,6.8,30.34,West,274,6.0,9.0,69,0.00,,,0.00,Wunderground v.1.15,2013-02-14 04:30:00,
2013-02-13 21:35:00,15.3,7.3,30.34,West,275,6.0,9.0,70,0.00,,,0.00,Wunderground v.1.15,2013-02-14 04:35:00,
2013-02-13 21:40:00,15.1,6.4,30.34,North,5,3.0,6.0,68,0.00,,,0.00,Wunderground v.1.15,2013-02-14 04:40:00,
2013-02-13 21:45:00,15.2,7.2,30.34,WSW,245,1.0,6.0,70,0.00,,,0.00,Wunderground v.1.15,2013-02-14 04:45:00,
2013-02-13 21:50:00,16.1,8.0,30.34,NW,317,0.0,2.0,70,0.00,,,0.00,Wunderground v.1.15,2013-02-14 04:50:00,
2013-02-13 21:55:00,16.9,8.5,30.34,NW,317,0.0,3.0,69,0.00,,,0.00,Wunderground v.1.15,2013-02-14 04:55:00,
2013-02-13 22:00:00,17.5,9.1,30.34,NW,317,0.0,0.0,69,0.00,,,0.00,Wunderground v.1.15,2013-02-14 05:00:00,
2013-02-13 22:05:00,18.2,9.4,30.34,NW,317,3.0,5.0,68,0.00,,,0.00,Wunderground v.1.15,2013-02-14 05:05:00,
2013-02-13 22:10:00,18.4,8.9,30.34,NW,317,1.0,1.0,66,0.00,,,0.00,Wunderground v.1.15,2013-02-14 05:10:00,
2013-02-13 22:15:00,18.4,8.9,30.34,NW,319,1.0,2.0,66,0.00,,,0.00,Wunderground v.1.15,2013-02-14 05:15:00,
2013-02-13 22:20:00,18.4,9.3,30.34,NW,319,0.0,1.0,67,0.00,,,0.00,Wunderground v.1.15,2013-02-14 05:20:00,
2013-02-13 22:25:00,18.6,9.5,30.34,NW,319,0.0,1.0,67,0.00,,,0.00,Wunderground v.1.15,2013-02-14 05:25:00,
2013-02-13 22:30:00,17.8,7.3,30.34,WNW,294,4.0,5.0,63,0.00,,,0.00,Wunderground v.1.15,2013-02-14 05:30:00,
2013-02-13 22:35:00,16.2,6.8,30.34,WNW,294,1.0,5.0,66,0.00,,,0.00,Wunderground v.1.15,2013-02-14 05:35:00,
2013-02-13 22:40:00,15.9,7.2,30.34,NNW,341,0.0,2.0,68,0.00,,,0.00,Wunderground v.1.15,2013-02-14 05:40:00,
2013-02-13 22:45:00,15.9,7.5,30.34,NNW,331,0.0,5.0,69,0.00,,,0.00,Wunderground v.1.15,2013-02-14 05:45:00,
2013-02-13 22:50:00,15.8,7.4,30.34,NNW,327,0.0,1.0,69,0.00,,,0.00,Wunderground v.1.15,2013-02-14 05:50:00,
2013-02-13 22:55:00,15.7,7.3,30.34,NW,326,3.0,4.0,69,0.00,,,0.00,Wunderground v.1.15,2013-02-14 05:55:00,
2013-02-13 23:00:00,15.7,7.6,30.35,SW,222,3.0,3.0,70,0.00,,,0.00,Wunderground v.1.15,2013-02-14 06:00:00,
2013-02-13 23:05:00,15.9,7.8,30.35,SW,223,0.0,3.0,70,0.00,,,0.00,Wunderground v.1.15,2013-02-14 06:05:00,
2013-02-13 23:10:00,15.9,7.5,30.34,SW,223,2.0,2.0,69,0.00,,,0.00,Wunderground v.1.15,2013-02-14 06:10:00,
2013-02-13 23:15:00,16.1,7.4,30.35,SW,222,0.0,3.0,68,0.00,,,0.00,Wunderground v.1.15,2013-02-14 06:15:00,
2013-02-13 23:20:00,16.0,7.3,30.35,South,184,0.0,2.0,68,0.00,,,0.00,Wunderground v.1.15,2013-02-14 06:20:00,
2013-02-13 23:25:00,15.7,7.0,30.35,South,184,0.0,2.0,68,0.00,,,0.00,Wunderground v.1.15,2013-02-14 06:25:00,
2013-02-13 23:30:00,15.3,6.6,30.34,South,185,0.0,0.0,68,0.00,,,0.00,Wunderground v.1.15,2013-02-14 06:30:00,
2013-02-13 23:35:00,15.0,6.7,30.34,SSE,163,4.0,5.0,69,0.00,,,0.00,Wunderground v.1.15,2013-02-14 06:35:00,
2013-02-13 23:40:00,14.1,5.1,30.35,WSW,242,3.0,4.0,67,0.00,,,0.00,Wunderground v.1.15,2013-02-14 06:40:00,
2013-02-13 23:45:00,14.5,6.2,30.35,WSW,243,1.0,4.0,69,0.00,,,0.00,Wunderground v.1.15,2013-02-14 06:45:00,
2013-02-13 23:50:00,15.2,6.8,30.35,WSW,243,2.0,2.0,69,0.00,,,0.00,Wunderground v.1.15,2013-02-14 06:50:00,
2013-02-13 23:55:00,15.8,7.1,30.35,WSW,242,1.0,3.0,68,0.00,,,0.00,Wunderground v.1.15,2013-02-14 06:55:00,